Time;durP1;ratioP1;P1;durP2;ratioP2;P2;SDS_P1;SDS_P2;PMS_P1;PMS_P2;Temp;Humidity;BMP_temperature;BMP_pressure;BME280_temperature;BME280_humidity;BME280_pressure;Samples;Min_cycle;Max_cycle;Signal;HPM_P1;HPM_P2
2020/12/05 00:02:29;;;;;;;12.57;11.27;;;1.90;99.90;;;2.55;70.98;91770.72;5076868;28;20189;-73
2020/12/05 00:04:57;;;;;;;13.30;11.90;;;1.80;99.90;;;2.55;70.57;91775.94;5088780;28;20189;-73
2020/12/05 00:07:23;;;;;;;12.67;11.30;;;1.80;99.90;;;2.49;70.79;91779.63;5073724;28;20198;-72
2020/12/05 00:09:49;;;;;;;13.07;11.77;;;1.80;99.90;;;2.42;70.77;91770.50;5088567;28;20519;-73
2020/12/05 00:12:15;;;;;;;12.63;11.33;;;1.70;99.90;;;2.44;70.38;91763.19;5086481;28;20232;-73
2020/12/05 00:14:41;;;;;;;11.73;10.53;;;1.70;99.90;;;2.58;70.52;91770.22;5074130;28;20210;-73
2020/12/05 00:17:11;;;;;;;11.93;10.73;;;1.80;99.90;;;2.48;70.34;91761.63;5072455;28;20186;-73
2020/12/05 00:19:37;;;;;;;11.37;10.17;;;1.70;99.90;;;2.43;70.61;91767.63;5087709;28;20183;-73
2020/12/05 00:22:03;;;;;;;11.10;10.00;;;1.70;99.90;;;2.39;70.62;91781.50;5092695;28;20179;-73
2020/12/05 00:24:29;;;;;;;11.00;9.90;;;1.60;99.90;;;2.41;71.01;91788.03;5059454;28;21143;-73
2020/12/05 00:26:55;;;;;;;10.70;9.70;;;1.60;99.90;;;2.51;70.91;91795.84;5092652;28;20187;-73
2020/12/05 00:29:21;;;;;;;10.53;9.43;;;1.70;99.90;;;2.41;70.62;91795.88;5087196;28;20233;-73
2020/12/05 00:31:52;;;;;;;10.67;9.67;;;1.70;99.90;;;2.45;71.09;91803.97;5086561;28;20273;-73
2020/12/05 00:34:19;;;;;;;10.47;9.47;;;1.70;99.90;;;2.42;71.23;91826.19;5089457;28;20190;-73
2020/12/05 00:36:50;;;;;;;10.40;9.40;;;1.70;99.90;;;2.44;71.00;91823.31;5108841;28;20178;-72
2020/12/05 00:39:16;;;;;;;10.03;9.10;;;1.60;99.90;;;2.39;71.13;91810.25;5078735;28;20667;-73
2020/12/05 00:41:42;;;;;;;9.90;9.00;;;1.60;99.90;;;2.42;71.35;91820.94;5084128;28;20192;-73
2020/12/05 00:44:08;;;;;;;10.03;9.07;;;1.70;99.90;;;2.43;71.50;91837.44;5076542;28;20220;-73
2020/12/05 00:46:34;;;;;;;10.10;9.10;;;1.60;99.90;;;2.46;70.87;91844.72;5083288;28;20677;-73
2020/12/05 00:49:00;;;;;;;10.00;9.00;;;1.70;99.90;;;2.49;70.83;91850.22;5098989;28;20183;-73
2020/12/05 00:51:26;;;;;;;9.27;8.37;;;1.70;99.90;;;2.52;70.92;91841.84;5088537;28;20234;-72
2020/12/05 00:53:53;;;;;;;10.00;9.10;;;1.80;99.90;;;2.57;71.30;91841.84;5078621;28;20287;-73
2020/12/05 00:56:22;;;;;;;10.80;9.70;;;1.80;99.90;;;2.57;71.16;91848.88;5052960;28;20182;-73
2020/12/05 00:58:48;;;;;;;10.80;9.70;;;1.80;99.90;;;2.59;71.81;91857.25;5074835;28;20183;-73
2020/12/05 01:01:17;;;;;;;12.67;11.33;;;1.80;99.90;;;2.67;71.65;91887.28;5093859;28;20248;-73
2020/12/05 01:03:46;;;;;;;13.53;11.53;;;1.90;99.90;;;2.65;71.39;91884.16;5092894;28;20538;-73
2020/12/05 01:06:14;;;;;;;12.77;11.47;;;1.90;99.90;;;2.71;71.24;91899.56;5077888;28;20191;-73
2020/12/05 01:08:45;;;;;;;13.10;11.70;;;1.90;99.90;;;2.68;71.04;91894.88;5063236;28;20231;-73
2020/12/05 01:11:18;;;;;;;14.77;12.43;;;1.80;99.90;;;2.60;71.51;91895.41;5071248;28;20575;-74
2020/12/05 01:13:50;;;;;;;14.23;12.73;;;1.80;99.90;;;2.49;71.74;91886.81;5097374;28;20214;-74
2020/12/05 01:16:20;;;;;;;13.63;12.07;;;1.70;99.90;;;2.55;71.53;91911.13;5091958;28;20162;-74
2020/12/05 01:18:51;;;;;;;13.93;12.40;;;1.70;99.90;;;2.58;71.74;91918.44;5076104;28;20536;-74
2020/12/05 01:21:17;;;;;;;13.23;11.60;;;1.70;99.90;;;2.62;71.20;91924.69;5057305;28;20720;-74
2020/12/05 01:23:44;;;;;;;12.90;11.40;;;1.70;99.90;;;2.57;71.29;91930.72;5072530;28;20221;-74
2020/12/05 01:26:10;;;;;;;12.27;11.00;;;1.70;99.90;;;2.63;71.59;91934.09;5071807;28;20221;-74
2020/12/05 01:28:37;;;;;;;12.47;11.13;;;1.70;99.90;;;2.64;71.32;91946.13;5081037;28;20217;-74
2020/12/05 01:31:04;;;;;;;11.23;10.13;;;1.80;99.90;;;2.56;71.70;91955.28;5082027;28;20210;-74
2020/12/05 01:33:31;;;;;;;10.67;9.57;;;1.70;99.90;;;2.49;71.57;91969.66;5089835;28;20189;-74
2020/12/05 01:36:00;;;;;;;10.33;9.23;;;1.60;99.90;;;2.46;72.20;91978.81;5088898;28;20552;-74
2020/12/05 01:38:27;;;;;;;10.47;9.37;;;1.60;99.90;;;2.47;71.39;91966.53;5089314;28;20187;-74
2020/12/05 01:40:57;;;;;;;10.27;9.10;;;1.60;99.90;;;2.50;71.22;91981.69;5129307;28;20283;-74
2020/12/05 01:43:25;;;;;;;11.00;9.73;;;1.60;99.90;;;2.49;71.46;91993.19;5062075;28;20179;-74
2020/12/05 01:45:53;;;;;;;9.80;8.80;;;1.60;99.90;;;2.48;72.47;91999.50;5075398;28;20175;-74
2020/12/05 01:48:27;;;;;;;10.63;9.53;;;1.60;99.90;;;2.49;71.64;91998.41;5066893;28;20191;-74
2020/12/05 01:50:57;;;;;;;10.67;9.37;;;1.60;99.90;;;2.51;71.58;92006.81;5080553;28;20194;-74
2020/12/05 01:53:23;;;;;;;10.77;9.67;;;1.60;99.90;;;2.51;72.14;92004.19;5058651;28;20218;-74
2020/12/05 01:55:51;;;;;;;11.10;9.80;;;1.70;99.90;;;2.49;72.11;92011.50;5054815;28;20167;-74
2020/12/05 01:58:19;;;;;;;13.37;11.07;;;1.60;99.90;;;2.54;71.75;92012.28;5096403;28;20188;-74
2020/12/05 02:00:46;;;;;;;12.23;10.73;;;1.60;99.90;;;2.56;71.61;92020.66;5098466;28;20198;-74
2020/12/05 02:03:16;;;;;;;12.33;11.00;;;1.70;99.90;;;2.61;71.72;92024.31;5083979;28;20641;-74
2020/12/05 02:06:01;;;;;;;12.50;11.20;;;1.70;99.90;;;2.63;71.96;92024.81;5056191;28;20184;-74
2020/12/05 02:08:38;;;;;;;13.13;11.70;;;1.70;99.90;;;2.57;72.41;92017.00;5071900;28;20688;-74
2020/12/05 02:11:10;;;;;;;13.70;12.20;;;1.70;99.90;;;2.59;72.47;92040.25;5088471;28;20257;-74
2020/12/05 02:13:40;;;;;;;14.10;12.33;;;1.70;99.90;;;2.50;72.24;92039.22;5075773;28;20201;-74
2020/12/05 02:16:07;;;;;;;16.37;12.40;;;1.70;99.90;;;2.58;71.74;92038.69;5082943;28;20194;-74
2020/12/05 02:18:36;;;;;;;14.87;13.17;;;1.70;99.90;;;2.56;72.21;92072.13;5087057;28;20197;-74
2020/12/05 02:21:05;;;;;;;15.87;13.40;;;1.80;99.90;;;2.52;72.15;92073.69;5091388;28;20209;-75
2020/12/05 02:23:32;;;;;;;15.53;13.83;;;1.70;99.90;;;2.55;72.65;92088.91;5094207;28;20183;-74
2020/12/05 02:26:09;;;;;;;13.83;12.27;;;1.70;99.90;;;2.58;72.06;92086.53;5074943;28;20224;-74
2020/12/05 02:28:35;;;;;;;13.53;12.00;;;1.70;99.90;;;2.62;72.22;92080.78;5081760;28;20197;-74
2020/12/05 02:31:01;;;;;;;15.17;13.57;;;1.70;99.90;;;2.66;72.59;92092.28;5093039;28;20210;-74
2020/12/05 02:33:27;;;;;;;13.67;11.87;;;1.80;99.90;;;2.70;72.26;92088.09;5086849;28;20240;-74
2020/12/05 02:35:53;;;;;;;14.23;12.73;;;1.80;99.90;;;2.77;71.85;92094.66;5093244;28;20186;-74
2020/12/05 02:38:47;;;;;;;14.73;13.10;;;1.90;99.90;;;2.77;72.25;92092.03;5064086;28;20532;-74
2020/12/05 02:41:13;;;;;;;19.43;13.97;;;1.90;99.90;;;2.86;72.05;92100.13;5077178;28;20543;-74
2020/12/05 02:43:40;;;;;;;15.53;13.60;;;2.00;99.90;;;2.82;72.03;92092.03;5096181;28;20262;-74
2020/12/05 02:46:06;;;;;;;17.80;14.63;;;2.00;99.90;;;2.85;72.01;92086.28;5056178;28;20602;-74
2020/12/05 02:48:34;;;;;;;40.90;14.97;;;2.00;99.90;;;2.82;72.08;92094.63;5089625;28;20282;-74
2020/12/05 02:51:00;;;;;;;54.23;15.60;;;2.00;99.90;;;2.79;72.40;92102.22;5074555;28;20202;-74
2020/12/05 02:53:28;;;;;;;23.57;15.40;;;2.00;99.90;;;2.84;72.80;92112.69;5058033;28;20523;-74
2020/12/05 02:55:54;;;;;;;94.93;18.23;;;2.00;99.90;;;2.89;72.53;92121.31;5084984;28;20179;-74
2020/12/05 02:58:21;;;;;;;92.83;17.90;;;2.10;99.90;;;2.75;72.67;92111.66;5077420;28;20216;-74
2020/12/05 03:00:47;;;;;;;30.77;14.90;;;2.00;99.90;;;2.75;72.28;92128.13;5094669;28;20243;-74
2020/12/05 03:03:13;;;;;;;63.07;16.37;;;2.00;99.90;;;2.79;72.39;92131.78;5102093;28;20209;-74
2020/12/05 03:05:39;;;;;;;41.63;16.10;;;2.00;99.90;;;2.80;72.37;92127.34;5074516;28;20197;-74
2020/12/05 03:08:06;;;;;;;134.53;20.10;;;2.00;99.90;;;2.85;72.82;92132.59;5093255;28;20186;-75
2020/12/05 03:10:32;;;;;;;103.90;19.50;;;2.00;99.90;;;2.85;72.55;92122.91;5066625;28;20520;-74
2020/12/05 03:12:58;;;;;;;27.80;16.03;;;2.00;99.90;;;2.74;73.03;92126.56;5058738;28;20226;-74
2020/12/05 03:15:24;;;;;;;34.30;17.43;;;1.90;99.90;;;2.68;72.48;92138.06;5074606;28;20222;-74
2020/12/05 03:17:50;;;;;;;19.87;15.93;;;1.90;99.90;;;2.78;72.92;92142.50;5074400;28;20178;-74
2020/12/05 03:20:16;;;;;;;19.60;15.80;;;1.90;99.90;;;2.78;72.53;92140.69;5046697;28;20183;-75
2020/12/05 03:22:42;;;;;;;18.83;15.23;;;2.00;99.90;;;2.73;72.36;92142.50;5091160;28;20191;-75
2020/12/05 03:25:09;;;;;;;19.00;15.93;;;2.00;99.90;;;2.61;73.04;92141.97;5079688;28;20186;-74
2020/12/05 03:27:35;;;;;;;17.67;14.50;;;1.90;99.90;;;2.51;72.33;92140.13;5074977;28;20293;-75
2020/12/05 03:30:02;;;;;;;17.87;15.17;;;1.80;99.90;;;2.49;72.33;92139.56;5075756;28;20249;-74
2020/12/05 03:32:30;;;;;;;19.43;14.20;;;1.80;99.90;;;2.55;72.42;92160.25;5074429;28;20565;-74
2020/12/05 03:34:58;;;;;;;26.47;13.87;;;1.80;99.90;;;2.42;73.09;92157.34;5093364;28;20194;-75
2020/12/05 03:37:25;;;;;;;31.70;12.40;;;1.60;99.90;;;2.54;73.40;92163.91;5093889;28;20625;-74
2020/12/05 03:39:52;;;;;;;47.73;12.30;;;1.70;99.90;;;2.55;73.45;92162.09;5086375;28;20308;-74
2020/12/05 03:42:21;;;;;;;20.13;11.47;;;1.70;99.90;;;2.45;72.28;92162.06;5081676;28;20210;-75
2020/12/05 03:44:47;;;;;;;140.60;12.70;;;1.60;99.90;;;2.49;72.57;92169.13;5057633;28;20187;-74
2020/12/05 03:47:16;;;;;;;371.00;21.20;;;1.60;99.90;;;2.22;72.95;92168.50;5040905;28;20218;-74
2020/12/05 03:49:42;;;;;;;484.50;24.37;;;1.40;99.90;;;1.96;72.67;92185.13;5073391;28;20187;-75
2020/12/05 03:52:08;;;;;;;305.33;20.57;;;1.20;99.90;;;1.87;73.08;92204.94;5073989;28;20187;-75
2020/12/05 03:54:35;;;;;;;119.17;15.17;;;1.00;99.90;;;1.88;73.09;92215.13;5090893;28;20260;-74
2020/12/05 03:57:01;;;;;;;307.60;22.17;;;1.00;99.90;;;1.78;72.57;92190.81;5092496;28;20199;-74
2020/12/05 03:59:26;;;;;;;197.10;17.20;;;0.90;99.90;;;1.90;72.23;92186.16;5084451;28;20282;-74
2020/12/05 04:01:52;;;;;;;107.43;15.87;;;0.90;99.90;;;1.89;73.08;92187.97;5103555;27;20191;-74
2020/12/05 04:04:19;;;;;;;229.40;21.10;;;0.90;99.90;;;1.98;72.52;92178.59;5084192;28;20208;-74
2020/12/05 04:06:47;;;;;;;216.47;16.30;;;1.00;99.90;;;1.87;72.60;92186.66;5089611;28;20229;-74
2020/12/05 04:09:13;;;;;;;71.17;11.57;;;0.90;99.90;;;2.02;72.64;92177.06;5095494;28;20551;-74
2020/12/05 04:11:40;;;;;;;11.60;9.90;;;1.00;99.90;;;2.03;73.61;92217.81;5128667;27;20214;-74
2020/12/05 04:14:08;;;;;;;12.03;9.60;;;1.00;99.90;;;2.03;73.17;92238.72;5071470;28;20194;-74
2020/12/05 04:16:35;;;;;;;13.00;9.43;;;1.10;99.90;;;2.16;73.01;92266.22;5080798;28;20179;-74
2020/12/05 04:19:02;;;;;;;10.93;9.37;;;1.10;99.90;;;2.25;73.67;92275.13;5092564;28;20182;-75
2020/12/05 04:21:28;;;;;;;11.23;9.50;;;1.30;99.90;;;2.32;73.37;92288.75;5090704;28;20535;-74
2020/12/05 04:23:54;;;;;;;10.37;9.27;;;1.40;99.90;;;2.31;73.46;92281.97;5090070;28;20190;-74
2020/12/05 04:26:22;;;;;;;10.97;9.47;;;1.40;99.90;;;2.10;73.23;92276.88;5056338;28;20547;-74
2020/12/05 04:28:49;;;;;;;10.20;9.07;;;1.20;99.90;;;2.00;72.94;92283.63;5079589;28;20202;-74
2020/12/05 04:31:16;;;;;;;10.47;8.80;;;1.10;99.90;;;2.15;72.85;92287.38;5086223;28;20354;-74
2020/12/05 04:33:42;;;;;;;10.70;9.00;;;1.20;99.90;;;2.26;73.33;92258.44;5094660;28;20191;-75
2020/12/05 04:36:08;;;;;;;9.63;8.63;;;1.20;99.90;;;2.48;73.06;92255.66;5078687;28;20574;-75
2020/12/05 04:38:39;;;;;;;9.67;8.67;;;1.40;99.90;;;2.48;73.63;92246.00;5091524;28;20183;-75
2020/12/05 04:41:05;;;;;;;9.67;8.53;;;1.50;99.90;;;2.51;73.07;92248.09;5112086;28;20182;-74
2020/12/05 04:43:34;;;;;;;9.10;8.20;;;1.50;99.90;;;2.39;73.66;92241.50;5089807;28;20183;-74
2020/12/05 04:46:02;;;;;;;8.07;7.27;;;1.50;99.90;;;2.35;73.89;92272.56;5091175;28;20184;-75
2020/12/05 04:48:35;;;;;;;8.13;7.33;;;1.50;99.90;;;2.40;73.86;92269.22;5079129;28;20224;-75
2020/12/05 04:51:03;;;;;;;8.77;7.87;;;1.50;99.90;;;2.41;73.82;92268.19;5098138;28;20199;-75
2020/12/05 04:53:31;;;;;;;9.13;8.13;;;1.50;99.90;;;2.47;73.47;92281.00;5073376;28;20668;-75
2020/12/05 04:55:59;;;;;;;8.10;7.30;;;1.50;99.90;;;2.54;73.82;92268.50;5088531;28;20194;-75
2020/12/05 04:58:28;;;;;;;8.40;7.40;;;1.60;99.90;;;2.54;73.83;92278.94;5062000;28;20191;-74
2020/12/05 05:00:56;;;;;;;7.40;6.67;;;1.60;99.90;;;2.57;74.29;92270.59;5087977;28;20187;-75
2020/12/05 05:03:27;;;;;;;7.50;6.80;;;1.70;99.90;;;2.59;74.05;92278.97;5078341;28;20183;-75
2020/12/05 05:05:56;;;;;;;7.13;6.43;;;1.80;99.90;;;2.60;73.92;92292.81;5072279;28;20286;-74
2020/12/05 05:08:27;;;;;;;7.60;6.80;;;1.80;99.90;;;2.71;73.68;92270.91;5073430;28;20179;-75
2020/12/05 05:11:11;;;;;;;8.17;7.37;;;1.80;99.90;;;2.63;73.38;92286.28;5102603;28;20187;-75
2020/12/05 05:14:01;;;;;;;7.87;6.40;;;1.80;99.90;;;2.64;74.11;92293.09;5073466;28;20190;-75
2020/12/05 05:16:28;;;;;;;6.57;5.87;;;1.80;99.90;;;2.67;74.23;92276.91;5072746;28;20179;-74
2020/12/05 05:18:57;;;;;;;7.33;6.60;;;1.80;99.90;;;2.59;73.93;92297.25;5074826;28;20764;-74
2020/12/05 05:21:40;;;;;;;7.90;6.87;;;1.80;99.90;;;2.64;73.54;92320.03;5075753;28;20198;-74
2020/12/05 05:24:20;;;;;;;9.37;8.37;;;1.80;99.90;;;2.56;73.81;92305.63;5073545;28;20520;-74
2020/12/05 05:27:02;;;;;;;8.13;7.33;;;1.70;99.90;;;2.55;73.90;92304.03;5083394;28;20187;-75
2020/12/05 05:29:39;;;;;;;9.17;7.57;;;1.70;99.90;;;2.51;74.06;92296.97;5056649;28;20202;-75
2020/12/05 05:32:19;;;;;;;7.60;6.80;;;1.70;99.90;;;2.54;74.13;92312.94;5076377;28;20702;-75
2020/12/05 05:34:47;;;;;;;8.23;7.30;;;1.70;99.90;;;2.57;74.34;92299.34;5066343;28;20252;-74
2020/12/05 05:37:19;;;;;;;9.63;7.87;;;1.70;99.90;;;2.56;73.80;92312.66;5082463;28;20198;-75
2020/12/05 05:39:54;;;;;;;8.40;7.60;;;1.70;99.90;;;2.73;73.70;92304.63;5113159;28;20656;-75
2020/12/05 05:42:41;;;;;;;9.47;8.07;;;1.90;99.90;;;2.72;73.63;92332.59;5089935;28;20201;-74
2020/12/05 05:45:29;;;;;;;7.17;6.47;;;1.90;99.90;;;2.72;74.66;92337.06;5109616;28;20178;-74
2020/12/05 05:48:03;;;;;;;6.87;6.20;;;1.90;99.90;;;2.54;74.31;92346.94;5076133;28;20194;-74
2020/12/05 05:50:32;;;;;;;7.17;6.37;;;1.80;99.90;;;2.60;74.22;92345.13;5091849;28;20172;-75
2020/12/05 05:53:22;;;;;;;6.63;5.90;;;1.80;99.90;;;2.74;73.80;92385.47;5078892;28;20202;-75
2020/12/05 05:55:50;;;;;;;6.90;5.97;;;1.80;99.90;;;2.71;74.39;92388.59;5092932;28;20549;-76
2020/12/05 05:58:21;;;;;;;6.80;6.10;;;1.80;99.90;;;2.72;74.31;92384.16;5077192;28;20184;-75
2020/12/05 06:00:50;;;;;;;9.80;6.67;;;1.80;99.90;;;2.77;74.08;92389.38;5088451;28;20182;-75
2020/12/05 06:03:28;;;;;;;7.77;6.80;;;1.90;99.90;;;2.57;74.23;92401.31;5079932;28;20629;-75
2020/12/05 06:05:59;;;;;;;7.57;6.77;;;1.80;99.90;;;2.49;74.10;92407.00;5108580;28;20179;-75
2020/12/05 06:08:29;;;;;;;8.20;7.30;;;1.70;99.90;;;2.45;74.15;92405.94;5078422;28;20202;-75
2020/12/05 06:11:02;;;;;;;8.73;7.33;;;1.70;99.90;;;2.35;74.40;92390.19;5098948;28;20262;-75
2020/12/05 06:13:33;;;;;;;8.77;7.07;;;1.60;99.90;;;2.30;73.94;92405.06;5093389;28;20183;-75
2020/12/05 06:16:00;;;;;;;9.13;7.43;;;1.50;99.90;;;2.30;74.33;92418.91;5091186;28;20879;-75
2020/12/05 06:18:27;;;;;;;9.10;7.80;;;1.50;99.90;;;2.32;74.30;92411.59;5096969;28;20255;-75
2020/12/05 06:20:54;;;;;;;7.40;6.63;;;1.60;99.90;;;2.19;74.26;92406.81;5092854;28;20203;-75
2020/12/05 06:23:53;;;;;;;8.53;6.87;;;1.40;99.90;;;2.22;74.06;92421.19;5089972;28;20642;-75
2020/12/05 06:26:28;;;;;;;7.90;6.50;;;1.40;99.90;;;2.14;74.38;92416.44;5102655;28;20675;-75
2020/12/05 06:28:55;;;;;;;7.70;6.70;;;1.40;99.90;;;2.04;73.92;92402.28;5086598;28;20190;-75
2020/12/05 06:31:48;;;;;;;7.40;6.60;;;1.30;99.90;;;1.93;74.71;92418.88;5096450;28;20201;-75
2020/12/05 06:34:41;;;;;;;8.27;7.00;;;1.20;99.90;;;1.87;74.20;92408.66;5059895;28;20180;-75
2020/12/05 06:37:33;;;;;;;8.33;7.17;;;1.20;99.90;;;1.64;74.17;92388.88;5078934;28;20683;-75
2020/12/05 06:40:04;;;;;;;9.03;7.23;;;0.90;99.90;;;1.67;74.45;92372.69;5090626;28;20182;-76
2020/12/05 06:42:42;;;;;;;8.53;6.83;;;0.90;99.90;;;1.41;74.37;92366.44;5095090;28;20178;-76
2020/12/05 06:45:30;;;;;;;10.07;8.17;;;0.70;99.90;;;1.46;74.19;92378.75;5106690;28;20521;-75
2020/12/05 06:48:11;;;;;;;10.43;7.60;;;0.70;99.90;;;1.45;74.41;92377.19;5004662;28;20200;-75
2020/12/05 06:50:39;;;;;;;8.97;7.43;;;0.70;99.90;;;1.48;74.74;92385.31;4994866;28;20185;-75
2020/12/05 06:53:20;;;;;;;9.87;8.00;;;0.70;99.90;;;1.34;74.52;92399.78;5003457;28;20251;-75
2020/12/05 06:55:48;;;;;;;9.90;7.93;;;0.60;99.90;;;1.26;74.50;92409.88;4994854;28;20193;-75
2020/12/05 06:58:14;;;;;;;12.33;8.10;;;0.50;99.90;;;1.27;74.25;92408.84;4994236;28;20209;-75
2020/12/05 07:00:41;;;;;;;8.97;7.23;;;0.50;99.90;;;1.15;73.89;92403.75;4980449;28;20186;-75
2020/12/05 07:03:13;;;;;;;11.43;8.03;;;0.40;99.90;;;1.09;74.02;92404.72;4996221;28;20363;-74
2020/12/05 07:05:43;;;;;;;11.70;8.43;;;0.30;99.90;;;1.15;74.76;92405.56;4973538;28;20207;-75
2020/12/05 07:08:34;;;;;;;8.93;7.13;;;0.30;99.90;;;1.24;74.44;92431.00;4995867;28;20220;-75
2020/12/05 07:11:05;;;;;;;9.17;7.07;;;0.40;99.90;;;1.31;74.54;92426.34;4977131;28;20264;-75
2020/12/05 07:13:39;;;;;;;10.97;7.77;;;0.50;99.90;;;1.26;74.54;92417.69;4984781;28;20193;-75
2020/12/05 07:16:18;;;;;;;9.10;6.70;;;0.40;99.90;;;1.15;74.04;92421.22;4987884;28;20220;-75
2020/12/05 07:18:47;;;;;;;14.87;6.70;;;0.30;99.90;;;1.22;73.80;92419.22;4995514;28;20193;-75
2020/12/05 07:21:14;;;;;;;10.33;7.07;;;0.30;99.90;;;1.20;74.80;92411.63;4977081;28;20197;-75
2020/12/05 07:23:43;;;;;;;8.83;6.53;;;0.30;99.90;;;1.20;74.54;92414.25;5005659;28;20701;-75
2020/12/05 07:26:10;;;;;;;8.07;6.43;;;0.40;99.90;;;1.28;74.57;92431.28;5090500;28;20193;-75
2020/12/05 07:28:36;;;;;;;9.20;6.20;;;0.40;99.90;;;1.34;74.57;92422.50;5080892;28;20344;-75
2020/12/05 07:31:03;;;;;;;10.27;6.60;;;0.40;99.90;;;1.46;74.58;92431.75;5070098;28;20552;-75
2020/12/05 07:33:30;;;;;;;8.07;6.50;;;0.60;99.90;;;1.55;75.01;92437.31;5085510;28;20662;-74
2020/12/05 07:36:08;;;;;;;7.30;6.17;;;0.70;99.90;;;1.49;74.55;92428.66;5083887;28;20278;-74
2020/12/05 07:38:39;;;;;;;8.17;6.93;;;0.70;99.90;;;1.57;74.52;92439.69;5101932;28;20189;-74
2020/12/05 07:41:17;;;;;;;7.63;6.63;;;0.70;99.90;;;1.61;74.81;92431.13;5086345;28;20212;-74
2020/12/05 07:43:45;;;;;;;12.40;6.83;;;0.80;99.90;;;1.66;74.79;92435.59;5062659;28;20182;-74
2020/12/05 07:46:13;;;;;;;18.60;7.47;;;0.90;99.90;;;1.85;74.90;92445.44;5085807;28;20177;-74
2020/12/05 07:48:42;;;;;;;104.70;10.57;;;1.00;99.90;;;1.94;74.78;92459.66;5081324;28;20171;-74
2020/12/05 07:51:17;;;;;;;128.20;11.20;;;1.10;99.90;;;1.86;75.04;92465.31;5076990;28;20199;-74
2020/12/05 07:53:46;;;;;;;117.30;11.73;;;1.00;99.90;;;1.87;74.40;92453.84;5068514;28;20185;-75
2020/12/05 07:56:22;;;;;;;46.33;9.80;;;1.10;99.90;;;1.78;75.11;92446.69;5070991;28;20186;-75
2020/12/05 07:58:54;;;;;;;64.47;9.40;;;1.00;99.90;;;1.73;74.79;92452.66;5085076;28;20178;-74
2020/12/05 08:01:48;;;;;;;58.20;8.70;;;0.90;99.90;;;1.72;74.60;92451.06;5100931;27;20239;-74
2020/12/05 08:04:53;;;;;;;54.00;8.80;;;0.90;99.90;;;1.64;75.07;92461.16;5070957;28;20182;-74
2020/12/05 08:07:45;;;;;;;9.33;6.40;;;0.80;99.90;;;1.84;74.53;92464.78;5078595;28;20182;-74
2020/12/05 08:10:17;;;;;;;10.00;6.03;;;1.00;99.90;;;1.97;74.55;92451.31;5081513;28;20175;-74
2020/12/05 08:12:45;;;;;;;9.90;7.07;;;1.10;99.90;;;1.93;75.24;92460.66;5049613;28;20225;-74
2020/12/05 08:15:14;;;;;;;9.13;6.77;;;1.10;99.90;;;2.06;74.65;92444.59;5086586;28;20653;-75
2020/12/05 08:17:43;;;;;;;10.17;7.13;;;1.20;99.90;;;2.10;75.27;92449.31;5074100;28;20212;-74
2020/12/05 08:20:08;;;;;;;8.83;6.47;;;1.30;99.90;;;2.14;75.01;92448.59;5081745;28;20211;-75
2020/12/05 08:22:37;;;;;;;7.67;6.37;;;1.30;99.90;;;2.31;75.21;92448.44;5067105;28;20223;-75
2020/12/05 08:25:06;;;;;;;5.60;5.00;;;1.40;99.90;;;2.33;74.83;92441.13;5069999;28;20221;-74
2020/12/05 08:27:35;;;;;;;8.57;5.07;;;1.50;99.90;;;2.34;74.92;92448.75;5096744;28;20226;-74
2020/12/05 08:30:03;;;;;;;11.93;9.43;;;1.50;99.90;;;2.47;75.02;92445.69;5082247;28;20194;-74
2020/12/05 08:32:30;;;;;;;8.10;6.93;;;1.60;99.90;;;2.65;74.81;92452.38;5082224;28;20587;-75
2020/12/05 08:35:10;;;;;;;12.33;10.60;;;1.70;99.90;;;2.66;75.22;92448.69;5078600;28;20200;-74
2020/12/05 08:37:49;;;;;;;13.87;9.47;;;1.80;99.90;;;2.80;74.66;92456.88;5086116;28;20171;-74
2020/12/05 08:40:18;;;;;;;6.27;5.37;;;2.00;99.90;;;2.77;74.65;92458.19;5065808;28;20206;-75
2020/12/05 08:42:48;;;;;;;6.37;5.43;;;2.00;99.90;;;2.92;74.94;92468.72;5067401;28;20715;-74
2020/12/05 08:45:20;;;;;;;6.00;5.40;;;2.10;99.90;;;3.08;75.21;92462.56;5096166;28;20555;-74
2020/12/05 08:47:50;;;;;;;5.47;4.97;;;2.30;99.90;;;3.16;74.73;92457.88;5064206;28;20224;-74
2020/12/05 08:50:32;;;;;;;5.53;5.03;;;2.40;99.90;;;3.20;75.43;92470.19;5072770;28;20257;-74
2020/12/05 08:53:00;;;;;;;6.23;5.57;;;2.40;99.90;;;3.31;75.19;92455.31;5072423;28;20255;-74
2020/12/05 08:55:34;;;;;;;5.80;5.30;;;2.50;99.90;;;3.60;75.24;92472.97;5064082;28;20197;-74
2020/12/05 08:58:03;;;;;;;6.10;5.50;;;2.80;99.90;;;3.75;75.41;92472.25;5066918;28;20183;-74
2020/12/05 09:00:37;;;;;;;9.43;6.10;;;3.00;99.90;;;3.82;75.49;92470.16;5088701;28;20179;-74
2020/12/05 09:03:03;;;;;;;5.10;4.47;;;3.10;99.90;;;3.82;74.88;92461.53;5072736;28;20697;-74
2020/12/05 09:05:30;;;;;;;5.00;4.50;;;3.20;99.90;;;4.14;75.17;92462.88;5061723;28;20234;-74
2020/12/05 09:08:02;;;;;;;4.33;3.93;;;3.50;99.90;;;4.41;75.00;92464.47;5042708;28;20194;-74
2020/12/05 09:10:29;;;;;;;17.17;4.70;;;3.70;99.90;;;4.53;75.40;92465.00;5088658;28;20201;-74
2020/12/05 09:13:10;;;;;;;25.50;6.00;;;3.70;99.90;;;4.61;75.49;92451.34;5073385;28;20600;-74
2020/12/05 09:15:51;;;;;;;10.07;5.23;;;3.80;99.90;;;4.64;75.17;92448.19;5099308;28;20213;-74
2020/12/05 09:18:19;;;;;;;134.00;10.57;;;3.90;99.90;;;4.85;75.35;92455.00;5090056;28;20540;-74
2020/12/05 09:20:47;;;;;;;290.40;12.87;;;4.20;99.90;;;4.93;75.04;92467.59;5091661;28;20186;-74
2020/12/05 09:23:27;;;;;;;89.87;8.47;;;4.30;99.90;;;4.68;75.24;92458.97;5091749;28;20204;-74
2020/12/05 09:26:14;;;;;;;175.10;11.00;;;4.20;99.90;;;4.56;74.80;92470.53;5070819;28;20267;-74
2020/12/05 09:28:40;;;;;;;196.57;11.33;;;4.10;99.90;;;4.87;75.55;92467.88;5088857;28;20547;-74
2020/12/05 09:31:08;;;;;;;271.97;12.47;;;4.30;99.90;;;5.04;74.95;92469.13;5085840;28;20190;-74
2020/12/05 09:33:35;;;;;;;83.33;7.83;;;4.40;99.90;;;4.95;75.29;92452.38;5101359;27;20194;-75
2020/12/05 09:36:04;;;;;;;81.43;7.63;;;4.30;99.90;;;4.80;75.30;92460.25;5082544;28;20198;-76
2020/12/05 09:38:30;;;;;;;33.33;5.93;;;4.30;99.90;;;4.99;74.88;92469.16;5086490;28;20183;-75
2020/12/05 09:40:59;;;;;;;9.33;5.73;;;4.30;99.90;;;5.05;75.33;92462.84;5106646;28;20321;-75
2020/12/05 09:43:27;;;;;;;7.97;5.40;;;4.40;99.90;;;4.87;75.05;92466.00;5092557;28;20827;-76
2020/12/05 09:45:53;;;;;;;6.60;5.27;;;4.30;99.90;;;4.85;74.83;92483.09;5082981;28;20186;-76
2020/12/05 09:48:20;;;;;;;8.00;6.03;;;4.20;99.90;;;4.92;74.96;92475.72;5076200;28;20189;-75
2020/12/05 09:50:46;;;;;;;6.63;5.53;;;4.30;99.90;;;4.80;74.73;92489.13;5068696;28;20250;-75
2020/12/05 09:53:15;;;;;;;7.03;5.77;;;4.20;99.90;;;4.83;75.48;92495.69;5083314;28;20213;-75
2020/12/05 09:55:41;;;;;;;6.20;5.30;;;4.20;99.90;;;4.78;75.33;92475.47;5068748;28;20188;-75
2020/12/05 09:58:07;;;;;;;28.67;5.87;;;4.10;99.90;;;4.73;74.87;92469.47;5086339;28;20254;-75
2020/12/05 10:00:33;;;;;;;18.47;7.30;;;4.10;99.90;;;4.40;75.07;92468.94;5075690;28;20601;-76
2020/12/05 10:02:59;;;;;;;23.10;7.37;;;3.90;99.90;;;4.40;74.77;92470.78;5082439;28;20180;-76
2020/12/05 10:05:25;;;;;;;12.20;6.63;;;3.80;99.90;;;4.23;74.83;92463.13;5077941;28;20198;-75
2020/12/05 10:07:51;;;;;;;8.23;5.40;;;3.70;99.90;;;4.12;74.66;92464.19;5080607;28;20187;-75
2020/12/05 10:10:18;;;;;;;5.90;5.27;;;3.50;99.90;;;3.91;75.03;92471.22;5099592;27;20187;-75
2020/12/05 10:12:46;;;;;;;7.33;6.50;;;3.40;99.90;;;3.84;75.21;92475.94;5091946;28;20295;-76
2020/12/05 10:15:14;;;;;;;10.97;8.40;;;3.20;99.90;;;3.83;74.66;92463.09;5085437;28;20187;-76
2020/12/05 10:17:42;;;;;;;14.87;10.13;;;3.10;99.90;;;3.82;74.58;92459.69;5074130;28;20180;-75
2020/12/05 10:20:11;;;;;;;14.33;9.47;;;3.10;99.90;;;4.01;74.67;92478.31;5084627;28;20187;-76
2020/12/05 10:22:38;;;;;;;11.53;8.50;;;3.20;99.90;;;4.00;74.82;92455.78;5072802;28;20187;-76
2020/12/05 10:25:05;;;;;;;10.40;8.30;;;3.20;99.90;;;3.95;74.97;92453.94;5079115;28;20576;-75
2020/12/05 10:27:33;;;;;;;8.47;6.77;;;3.10;99.90;;;4.12;74.82;92477.31;5096111;28;20255;-76
2020/12/05 10:30:01;;;;;;;7.60;6.37;;;3.30;99.90;;;4.24;75.21;92469.19;5078182;28;20245;-76
2020/12/05 10:32:31;;;;;;;8.50;6.60;;;3.50;99.90;;;4.40;74.77;92462.91;5062955;28;20703;-76
2020/12/05 10:35:00;;;;;;;7.47;6.17;;;3.60;99.90;;;4.57;75.12;92461.59;5085970;28;20279;-75
2020/12/05 10:37:28;;;;;;;5.53;4.93;;;3.80;99.90;;;4.58;74.85;92444.00;5076988;28;20187;-76
2020/12/05 10:39:54;;;;;;;5.93;5.33;;;3.80;99.90;;;4.70;75.20;92455.00;5090122;28;20177;-75